Time;durP1;ratioP1;P1;durP2;ratioP2;P2;SDS_P1;SDS_P2;PMS_P1;PMS_P2;Temp;Humidity;BMP_temperature;BMP_pressure;BME280_temperature;BME280_humidity;BME280_pressure;Samples;Min_cycle;Max_cycle;Signal;HPM_P1;HPM_P2
2023/03/06 00:00:57;;;;;;;19.90;10.23;;;3.00;99.90;;;;;;5051535;28;20068;-66
2023/03/06 00:03:24;;;;;;;25.73;9.25;;;3.00;99.90;;;;;;5048674;28;20030;-66
2023/03/06 00:05:50;;;;;;;17.05;8.68;;;3.00;99.90;;;;;;5051339;28;20025;-66
2023/03/06 00:08:16;;;;;;;22.40;9.30;;;3.00;99.90;;;;;;5054829;28;20029;-65
2023/03/06 00:10:41;;;;;;;17.70;9.07;;;2.90;99.90;;;;;;5050249;28;20686;-66
2023/03/06 00:13:11;;;;;;;15.70;8.45;;;3.00;99.90;;;;;;5041907;28;20018;-66
2023/03/06 00:15:37;;;;;;;17.88;9.13;;;3.00;99.90;;;;;;5045872;28;20096;-66
2023/03/06 00:18:04;;;;;;;20.70;9.20;;;3.00;99.90;;;;;;5050915;28;20108;-67
2023/03/06 00:20:30;;;;;;;18.50;9.15;;;3.00;99.90;;;;;;5052324;28;20120;-67
2023/03/06 00:22:56;;;;;;;15.60;8.63;;;3.00;99.90;;;;;;5052706;28;20052;-66
2023/03/06 00:25:23;;;;;;;15.77;9.05;;;2.90;99.90;;;;;;5043356;28;20025;-66
2023/03/06 00:27:49;;;;;;;16.83;9.43;;;2.90;99.90;;;;;;5041187;28;20025;-66
2023/03/06 00:30:18;;;;;;;16.30;9.07;;;2.90;99.90;;;;;;5047524;28;20044;-66
2023/03/06 00:32:44;;;;;;;17.98;9.68;;;2.90;99.90;;;;;;5049287;28;20021;-67
2023/03/06 00:35:10;;;;;;;19.90;8.95;;;2.80;99.90;;;;;;5045948;28;20379;-67
2023/03/06 00:37:36;;;;;;;13.40;7.72;;;2.80;99.90;;;;;;5044126;28;20039;-67
2023/03/06 00:40:05;;;;;;;15.73;8.43;;;2.70;99.90;;;;;;5024803;28;20042;-68
2023/03/06 00:42:30;;;;;;;16.15;9.00;;;2.70;99.90;;;;;;5039495;28;20075;-66
2023/03/06 00:44:56;;;;;;;17.00;9.25;;;2.70;99.90;;;;;;5042782;28;20024;-67
2023/03/06 00:47:22;;;;;;;19.50;9.35;;;2.70;99.90;;;;;;5040410;28;20029;-67
2023/03/06 00:49:48;;;;;;;17.52;8.50;;;2.60;99.90;;;;;;5055579;28;20029;-68
2023/03/06 00:52:14;;;;;;;16.75;8.93;;;2.70;99.90;;;;;;5050427;28;20025;-66
2023/03/06 00:54:40;;;;;;;14.68;8.23;;;2.60;99.90;;;;;;5049753;28;20509;-64
2023/03/06 00:57:05;;;;;;;22.13;8.40;;;2.60;99.90;;;;;;5047843;28;20033;-67
2023/03/06 00:59:31;;;;;;;15.52;8.02;;;2.50;99.90;;;;;;5048359;28;20029;-66
2023/03/06 01:01:57;;;;;;;14.70;8.43;;;2.50;99.90;;;;;;5052810;28;20028;-68
2023/03/06 01:04:23;;;;;;;19.98;8.00;;;2.50;99.90;;;;;;5051012;28;20044;-66
2023/03/06 01:06:49;;;;;;;14.35;7.95;;;2.40;99.90;;;;;;5050470;28;20493;-66
2023/03/06 01:09:14;;;;;;;11.90;6.85;;;2.50;99.90;;;;;;5051788;28;20029;-67
2023/03/06 01:11:40;;;;;;;15.35;8.07;;;2.50;99.90;;;;;;5046216;28;20025;-67
2023/03/06 01:14:06;;;;;;;18.00;7.78;;;2.50;99.90;;;;;;5046822;28;20437;-67
2023/03/06 01:16:32;;;;;;;13.77;7.93;;;2.50;99.90;;;;;;5013601;23;20039;-66
2023/03/06 01:18:58;;;;;;;19.83;8.80;;;2.50;99.90;;;;;;4966598;28;20113;-65
2023/03/06 01:21:23;;;;;;;17.80;7.90;;;2.40;99.90;;;;;;4962246;28;20070;-65
2023/03/06 01:23:49;;;;;;;19.75;9.27;;;2.50;99.90;;;;;;4962008;28;20031;-66
2023/03/06 01:26:15;;;;;;;18.52;9.75;;;2.40;99.90;;;;;;4960635;28;20035;-67
2023/03/06 01:28:40;;;;;;;19.15;8.65;;;2.50;99.90;;;;;;4963346;28;20027;-65
2023/03/06 01:31:07;;;;;;;17.15;8.73;;;2.40;99.90;;;;;;4984628;28;20046;-67
2023/03/06 01:33:33;;;;;;;19.90;9.23;;;2.40;99.90;;;;;;4965620;28;20031;-67
2023/03/06 01:36:01;;;;;;;16.70;8.43;;;2.40;99.90;;;;;;4962668;28;20043;-65
2023/03/06 01:38:27;;;;;;;19.58;8.85;;;2.40;99.90;;;;;;4958447;28;20033;-66
2023/03/06 01:40:52;;;;;;;19.30;9.20;;;2.40;99.90;;;;;;4946384;28;20035;-66
2023/03/06 01:43:28;;;;;;;16.13;9.02;;;2.40;99.90;;;;;;4976627;28;20026;-65
2023/03/06 01:46:19;;;;;;;17.60;8.45;;;2.50;99.90;;;;;;4962908;28;20172;-65
2023/03/06 01:48:47;;;;;;;15.63;8.60;;;2.50;99.90;;;;;;4967044;28;20031;-65
2023/03/06 01:51:14;;;;;;;19.27;9.10;;;2.50;99.90;;;;;;4965199;28;20027;-66
2023/03/06 01:53:42;;;;;;;17.38;9.88;;;2.50;99.90;;;;;;4967016;28;20102;-66
2023/03/06 01:56:09;;;;;;;24.00;10.70;;;2.50;99.90;;;;;;4967571;28;20492;-66
2023/03/06 01:58:35;;;;;;;19.67;9.57;;;2.50;99.90;;;;;;4966243;28;20030;-65
2023/03/06 02:01:00;;;;;;;19.90;10.32;;;2.50;99.90;;;;;;4964751;28;20036;-65
2023/03/06 02:03:28;;;;;;;21.60;9.55;;;2.50;99.90;;;;;;4968297;28;20591;-66
2023/03/06 02:05:55;;;;;;;23.83;9.23;;;2.50;99.90;;;;;;4967004;28;20027;-65
2023/03/06 02:08:22;;;;;;;19.35;9.77;;;2.50;99.90;;;;;;4966848;28;20495;-67
2023/03/06 02:11:07;;;;;;;21.10;9.80;;;2.40;99.90;;;;;;4968398;28;20019;-66
2023/03/06 02:13:34;;;;;;;20.25;9.27;;;2.50;99.90;;;;;;4967055;28;20019;-65
2023/03/06 02:16:00;;;;;;;18.13;9.43;;;2.50;99.90;;;;;;4968348;28;20031;-65
2023/03/06 02:18:27;;;;;;;22.15;10.15;;;2.50;99.90;;;;;;4966160;28;20039;-65
2023/03/06 02:20:56;;;;;;;17.17;9.10;;;2.50;99.90;;;;;;4963606;28;20027;-66
2023/03/06 02:23:43;;;;;;;21.10;10.75;;;2.50;99.90;;;;;;4966543;28;20026;-65
2023/03/06 02:26:09;;;;;;;23.13;10.38;;;2.50;99.90;;;;;;4966674;28;20117;-66
2023/03/06 02:28:35;;;;;;;19.67;10.38;;;2.50;99.90;;;;;;4967280;28;20075;-66
2023/03/06 02:31:01;;;;;;;20.27;9.70;;;2.50;99.90;;;;;;4966801;28;20437;-67
2023/03/06 02:33:28;;;;;;;23.42;11.38;;;2.50;99.90;;;;;;4965519;28;20042;-66
2023/03/06 02:35:55;;;;;;;26.55;11.77;;;2.50;99.90;;;;;;4967653;28;20396;-66
2023/03/06 02:38:26;;;;;;;23.58;10.57;;;2.50;99.90;;;;;;4961878;28;20042;-66
2023/03/06 02:40:52;;;;;;;29.35;11.07;;;2.50;99.90;;;;;;4967236;28;20168;-66
2023/03/06 02:43:23;;;;;;;24.63;11.25;;;2.50;99.90;;;;;;4966743;28;20101;-67
2023/03/06 02:45:50;;;;;;;23.90;10.90;;;2.50;99.90;;;;;;4964321;28;20490;-65
2023/03/06 02:48:18;;;;;;;23.25;11.07;;;2.50;99.90;;;;;;4964207;28;20035;-65
2023/03/06 02:50:44;;;;;;;24.50;11.63;;;2.50;99.90;;;;;;4966288;28;20038;-67
2023/03/06 02:53:12;;;;;;;23.35;12.25;;;2.50;99.90;;;;;;4968193;28;20039;-66
2023/03/06 02:55:39;;;;;;;23.08;11.75;;;2.50;99.90;;;;;;4969465;28;20423;-66
2023/03/06 02:58:05;;;;;;;27.35;12.68;;;2.50;99.90;;;;;;4965678;28;20072;-66
2023/03/06 03:00:31;;;;;;;24.42;12.40;;;2.50;99.90;;;;;;4965722;28;20019;-65
2023/03/06 03:02:57;;;;;;;25.83;12.77;;;2.40;99.90;;;;;;4966227;28;20019;-65
2023/03/06 03:05:23;;;;;;;26.45;12.32;;;2.40;99.90;;;;;;4967023;28;20025;-65
2023/03/06 03:07:48;;;;;;;24.67;12.00;;;2.30;99.90;;;;;;4967725;28;20072;-65
2023/03/06 03:10:15;;;;;;;32.63;13.13;;;2.30;99.90;;;;;;4968391;28;20034;-65
2023/03/06 03:12:41;;;;;;;25.10;12.63;;;2.30;99.90;;;;;;4967189;28;20026;-64
2023/03/06 03:15:07;;;;;;;29.65;14.30;;;2.20;99.90;;;;;;4968411;28;20030;-66
2023/03/06 03:17:40;;;;;;;29.02;14.23;;;2.10;99.90;;;;;;4977653;28;20030;-65
2023/03/06 03:20:08;;;;;;;26.73;13.23;;;2.10;99.90;;;;;;4966271;28;20500;-66
2023/03/06 03:22:34;;;;;;;32.72;14.05;;;2.10;99.90;;;;;;4960415;28;20041;-66
2023/03/06 03:24:59;;;;;;;28.67;14.38;;;2.00;99.90;;;;;;4963615;28;20031;-67
2023/03/06 03:27:25;;;;;;;31.33;14.40;;;2.00;99.90;;;;;;4959807;28;20514;-66
2023/03/06 03:29:50;;;;;;;34.55;15.18;;;2.00;99.90;;;;;;4962941;28;20062;-65
2023/03/06 03:32:16;;;;;;;28.35;14.10;;;2.00;99.90;;;;;;4966859;28;20096;-65
2023/03/06 03:34:42;;;;;;;33.22;14.93;;;2.00;99.90;;;;;;4966799;28;20031;-67
2023/03/06 03:37:08;;;;;;;35.65;15.60;;;2.00;99.90;;;;;;4967217;28;20031;-66
2023/03/06 03:39:34;;;;;;;28.20;15.10;;;2.00;99.90;;;;;;4965509;28;20031;-65
2023/03/06 03:41:59;;;;;;;28.52;14.68;;;2.00;99.90;;;;;;4965435;28;20031;-66
2023/03/06 03:44:25;;;;;;;33.35;14.05;;;2.00;99.90;;;;;;4962245;28;20034;-66
2023/03/06 03:46:50;;;;;;;31.13;14.82;;;2.00;99.90;;;;;;4963487;28;20043;-67
2023/03/06 03:49:16;;;;;;;41.55;16.02;;;2.00;99.90;;;;;;4958000;28;20027;-65
2023/03/06 03:51:42;;;;;;;33.40;14.75;;;2.00;99.90;;;;;;4962070;28;20076;-66
2023/03/06 03:54:08;;;;;;;32.00;15.40;;;2.10;99.90;;;;;;4965822;28;20030;-66
2023/03/06 03:56:34;;;;;;;32.95;14.40;;;2.00;99.90;;;;;;4958928;28;20030;-65
2023/03/06 03:58:59;;;;;;;30.02;16.05;;;2.00;99.90;;;;;;4969384;28;20030;-65
2023/03/06 04:01:25;;;;;;;33.88;15.32;;;2.10;99.90;;;;;;4960961;28;20539;-65
2023/03/06 04:03:50;;;;;;;33.85;15.65;;;2.10;99.90;;;;;;4967165;28;20022;-65
2023/03/06 04:06:16;;;;;;;31.92;15.73;;;2.10;99.90;;;;;;4963378;28;20487;-65
2023/03/06 04:08:42;;;;;;;31.50;15.15;;;2.10;99.90;;;;;;4959300;28;20422;-65
2023/03/06 04:11:09;;;;;;;33.72;15.95;;;2.10;99.90;;;;;;4966295;28;20084;-65
2023/03/06 04:13:34;;;;;;;32.25;15.10;;;2.10;99.90;;;;;;4963373;28;20076;-65
2023/03/06 04:16:00;;;;;;;35.45;15.70;;;2.10;99.90;;;;;;4968216;28;20035;-66
2023/03/06 04:18:26;;;;;;;43.80;16.85;;;2.20;99.90;;;;;;4965509;28;20094;-65
2023/03/06 04:20:51;;;;;;;36.50;17.00;;;2.20;99.90;;;;;;4967625;28;20027;-66
2023/03/06 04:23:18;;;;;;;34.22;15.77;;;2.20;99.90;;;;;;4965510;28;20110;-65
2023/03/06 04:25:44;;;;;;;42.28;16.35;;;2.20;99.90;;;;;;4970513;28;20030;-65
2023/03/06 04:28:10;;;;;;;34.47;15.90;;;2.20;99.90;;;;;;4967563;28;20039;-67
2023/03/06 04:30:36;;;;;;;40.08;18.67;;;2.20;99.90;;;;;;4968686;28;20085;-66
2023/03/06 04:33:02;;;;;;;35.47;17.38;;;2.20;99.90;;;;;;4967532;28;20155;-65
2023/03/06 04:35:27;;;;;;;32.15;15.93;;;2.30;99.90;;;;;;4965991;28;20452;-66
2023/03/06 04:37:53;;;;;;;40.58;18.38;;;2.30;99.90;;;;;;4968550;28;20034;-65
2023/03/06 04:40:28;;;;;;;45.50;20.15;;;2.20;99.90;;;;;;4949802;28;20107;-67
2023/03/06 04:42:55;;;;;;;40.88;19.15;;;2.20;99.90;;;;;;4967043;28;20026;-66
2023/03/06 04:45:21;;;;;;;40.55;17.52;;;2.20;99.90;;;;;;4966991;28;21045;-66
2023/03/06 04:47:46;;;;;;;39.10;18.88;;;2.10;99.90;;;;;;4968631;28;20027;-66
2023/03/06 04:50:12;;;;;;;33.78;17.98;;;2.10;99.90;;;;;;4967445;28;20061;-66
2023/03/06 04:52:39;;;;;;;38.55;18.30;;;2.10;99.90;;;;;;4969371;28;20488;-66
2023/03/06 04:55:07;;;;;;;39.80;19.02;;;2.10;99.90;;;;;;4968002;28;20019;-66
2023/03/06 04:57:37;;;;;;;47.88;20.17;;;2.10;99.90;;;;;;4967166;28;21306;-65
2023/03/06 05:00:12;;;;;;;36.47;18.02;;;2.10;99.90;;;;;;4967231;28;20085;-65
2023/03/06 05:02:37;;;;;;;37.28;17.48;;;2.10;99.90;;;;;;4962979;28;20042;-66
2023/03/06 05:05:04;;;;;;;45.22;19.38;;;2.10;99.90;;;;;;4962290;28;20035;-64
2023/03/06 05:07:29;;;;;;;39.72;18.00;;;2.10;99.90;;;;;;4967365;28;20118;-65
2023/03/06 05:09:55;;;;;;;43.78;19.15;;;2.10;99.90;;;;;;4961673;28;20121;-65
2023/03/06 05:12:21;;;;;;;44.85;19.38;;;2.20;99.90;;;;;;4961567;28;20058;-66
2023/03/06 05:14:46;;;;;;;38.60;18.70;;;2.10;99.90;;;;;;4962564;28;20023;-65
2023/03/06 05:17:12;;;;;;;46.35;19.48;;;2.20;99.90;;;;;;4963099;28;20031;-65
2023/03/06 05:19:37;;;;;;;39.22;18.23;;;2.20;99.90;;;;;;4963012;28;20035;-66
2023/03/06 05:22:03;;;;;;;43.97;17.98;;;2.20;99.90;;;;;;4951668;28;20050;-63
2023/03/06 05:24:29;;;;;;;40.10;18.20;;;2.20;99.90;;;;;;4965448;28;20031;-66
2023/03/06 05:26:54;;;;;;;40.58;18.35;;;2.20;99.90;;;;;;4961714;28;20069;-65
2023/03/06 05:29:20;;;;;;;38.33;18.65;;;2.20;99.90;;;;;;4960962;28;20038;-66
2023/03/06 05:31:46;;;;;;;41.08;18.58;;;2.20;99.90;;;;;;4966917;28;20073;-65
2023/03/06 05:34:15;;;;;;;42.25;18.70;;;2.20;99.90;;;;;;4964747;28;20023;-65
2023/03/06 05:36:41;;;;;;;43.00;18.80;;;2.20;99.90;;;;;;4968327;28;20094;-65
2023/03/06 05:39:07;;;;;;;40.92;18.13;;;2.20;99.90;;;;;;4968833;28;20475;-65
2023/03/06 05:41:33;;;;;;;39.38;17.95;;;2.30;99.90;;;;;;4947367;28;20423;-65
2023/03/06 05:43:59;;;;;;;43.83;19.63;;;2.20;99.90;;;;;;4964682;28;20095;-65
2023/03/06 05:46:25;;;;;;;65.38;26.20;;;2.30;99.90;;;;;;4968328;28;20035;-65
2023/03/06 05:48:54;;;;;;;95.90;36.10;;;2.20;99.90;;;;;;4946718;28;20031;-66
2023/03/06 05:51:19;;;;;;;114.78;35.35;;;2.20;99.90;;;;;;4966200;28;20392;-65
2023/03/06 05:53:45;;;;;;;1129.80;341.20;;;2.30;99.90;;;;;;4968362;28;20023;-66
2023/03/06 05:56:11;;;;;;;317.27;99.47;;;2.30;99.90;;;;;;4967965;28;20114;-66
2023/03/06 05:58:37;;;;;;;387.27;115.43;;;2.30;99.90;;;;;;4966356;28;20038;-66
2023/03/06 06:01:22;;;;;;;246.52;85.72;;;2.30;99.90;;;;;;4964869;28;20023;-64
2023/03/06 06:03:47;;;;;;;147.18;59.05;;;2.30;99.90;;;;;;4961549;28;20025;-65
2023/03/06 06:06:14;;;;;;;104.07;44.40;;;2.30;99.90;;;;;;4963531;28;20035;-64
2023/03/06 06:08:40;;;;;;;66.25;31.33;;;2.40;99.90;;;;;;4967903;28;20027;-65
2023/03/06 06:11:08;;;;;;;60.90;25.30;;;2.30;99.90;;;;;;4966649;28;20034;-64
2023/03/06 06:13:34;;;;;;;48.53;21.77;;;2.40;99.90;;;;;;4964911;28;20129;-64
2023/03/06 06:16:06;;;;;;;46.50;20.05;;;2.30;99.90;;;;;;4967774;28;20035;-64
2023/03/06 06:18:32;;;;;;;48.33;21.08;;;2.40;99.90;;;;;;4967633;28;20035;-66
2023/03/06 06:20:57;;;;;;;47.90;20.52;;;2.30;99.90;;;;;;4967558;28;20033;-65
2023/03/06 06:23:23;;;;;;;45.22;18.55;;;2.30;99.90;;;;;;4966267;28;20055;-66
2023/03/06 06:25:50;;;;;;;52.42;20.25;;;2.30;99.90;;;;;;4965816;28;20085;-65
2023/03/06 06:28:15;;;;;;;49.78;19.67;;;2.30;99.90;;;;;;4962970;28;20027;-66
2023/03/06 06:30:41;;;;;;;44.00;17.85;;;2.30;99.90;;;;;;4963283;28;20533;-67
2023/03/06 06:33:06;;;;;;;51.85;21.08;;;2.30;99.90;;;;;;4967639;28;20027;-65
2023/03/06 06:35:35;;;;;;;42.70;19.10;;;2.40;99.90;;;;;;4965404;28;20095;-66
2023/03/06 06:38:01;;;;;;;47.67;21.05;;;2.30;99.90;;;;;;4968820;28;20046;-64
2023/03/06 06:40:28;;;;;;;51.13;21.05;;;2.40;99.90;;;;;;4948577;28;20035;-65
2023/03/06 06:42:53;;;;;;;51.03;21.05;;;2.40;99.90;;;;;;4964319;28;20035;-66
2023/03/06 06:45:19;;;;;;;45.70;20.38;;;2.30;99.90;;;;;;4963434;28;20124;-65
2023/03/06 06:47:48;;;;;;;51.63;19.92;;;2.30;99.90;;;;;;4965384;28;20117;-66
2023/03/06 06:50:14;;;;;;;44.25;19.23;;;2.30;99.90;;;;;;4966054;28;20434;-65
2023/03/06 06:52:39;;;;;;;44.38;19.65;;;2.30;99.90;;;;;;4967153;28;20035;-66
2023/03/06 06:55:05;;;;;;;41.50;19.10;;;2.30;99.90;;;;;;4966513;28;20019;-65
2023/03/06 06:57:31;;;;;;;49.95;20.00;;;2.40;99.90;;;;;;4961047;28;20039;-66
2023/03/06 06:59:56;;;;;;;50.15;23.38;;;2.40;99.90;;;;;;4993125;28;20030;-65
2023/03/06 07:02:22;;;;;;;51.30;21.67;;;2.30;99.90;;;;;;4966135;28;20503;-66
2023/03/06 07:04:48;;;;;;;53.67;21.42;;;2.40;99.90;;;;;;4967886;28;20022;-66
2023/03/06 07:07:13;;;;;;;52.83;23.25;;;2.40;99.90;;;;;;4965039;28;20111;-66
2023/03/06 07:09:39;;;;;;;49.95;21.73;;;2.40;99.90;;;;;;4965671;28;20499;-65
2023/03/06 07:12:06;;;;;;;50.67;19.98;;;2.40;99.90;;;;;;4961553;28;21052;-66
2023/03/06 07:14:31;;;;;;;48.60;20.90;;;2.40;99.90;;;;;;4966590;28;20110;-64
2023/03/06 07:16:57;;;;;;;49.63;21.92;;;2.40;99.90;;;;;;4965684;28;20034;-66
2023/03/06 07:19:23;;;;;;;53.15;23.85;;;2.40;99.90;;;;;;4966783;28;20043;-64
2023/03/06 07:21:49;;;;;;;56.00;21.08;;;2.40;99.90;;;;;;4967432;28;20504;-65
2023/03/06 07:24:15;;;;;;;45.95;19.20;;;2.50;99.90;;;;;;4991079;23;20155;-62
2023/03/06 07:26:47;;;;;;;41.67;20.10;;;2.50;99.90;;;;;;4924126;29;20409;-64
2023/03/06 07:29:13;;;;;;;54.63;19.33;;;2.50;99.90;;;;;;4924714;28;20036;-64
2023/03/06 07:31:39;;;;;;;43.08;18.95;;;2.50;99.90;;;;;;4919965;28;20043;-63
2023/03/06 07:34:04;;;;;;;42.97;17.98;;;2.60;99.90;;;;;;4928556;28;20039;-65
2023/03/06 07:36:30;;;;;;;44.45;20.00;;;2.60;99.90;;;;;;4929866;28;20039;-64
2023/03/06 07:38:56;;;;;;;40.28;19.27;;;2.60;99.90;;;;;;4926748;29;20028;-64
2023/03/06 07:41:22;;;;;;;43.88;20.50;;;2.70;99.90;;;;;;4905828;28;20135;-64
2023/03/06 07:43:48;;;;;;;42.38;18.65;;;2.70;99.90;;;;;;4930600;28;20035;-65
2023/03/06 07:46:13;;;;;;;46.22;19.85;;;2.80;99.90;;;;;;4926794;29;20072;-64
2023/03/06 07:48:40;;;;;;;44.53;21.13;;;2.90;99.90;;;;;;4933164;28;20028;-64
2023/03/06 07:51:10;;;;;;;45.90;20.95;;;2.90;99.90;;;;;;4921912;28;20074;-63
2023/03/06 07:53:36;;;;;;;40.80;19.65;;;3.00;99.90;;;;;;4925922;28;20027;-63
2023/03/06 07:56:07;;;;;;;45.03;17.88;;;3.00;99.90;;;;;;4926501;29;20025;-63
2023/03/06 07:58:34;;;;;;;45.75;19.42;;;3.00;99.90;;;;;;4930017;28;20028;-64
2023/03/06 08:01:03;;;;;;;47.30;19.30;;;3.10;99.90;;;;;;4931698;28;20037;-65
2023/03/06 08:03:28;;;;;;;38.92;17.92;;;3.20;99.90;;;;;;4932081;28;20031;-64
2023/03/06 08:06:10;;;;;;;42.95;17.85;;;3.20;99.90;;;;;;4924419;28;20020;-63
2023/03/06 08:08:40;;;;;;;46.17;17.88;;;3.20;99.90;;;;;;4923964;29;20046;-63
2023/03/06 08:11:08;;;;;;;46.92;21.10;;;3.20;99.90;;;;;;4926089;28;20038;-63
2023/03/06 08:13:33;;;;;;;36.42;18.13;;;3.10;99.90;;;;;;4931059;28;20034;-63
2023/03/06 08:15:59;;;;;;;56.25;24.83;;;3.20;99.90;;;;;;4950219;28;20111;-63
2023/03/06 08:18:26;;;;;;;39.83;20.02;;;3.20;99.90;;;;;;4931146;28;20062;-62
2023/03/06 08:21:01;;;;;;;46.75;18.13;;;3.20;99.90;;;;;;4931838;29;20082;-64
2023/03/06 08:23:27;;;;;;;31.77;16.27;;;3.20;99.90;;;;;;4944774;29;20500;-63
2023/03/06 08:25:57;;;;;;;37.40;16.77;;;3.20;99.90;;;;;;4936449;28;20089;-64
2023/03/06 08:28:23;;;;;;;43.55;16.88;;;3.20;99.90;;;;;;4945757;28;20027;-63
2023/03/06 08:30:48;;;;;;;36.47;16.17;;;3.10;99.90;;;;;;4930672;29;20046;-64
2023/03/06 08:33:14;;;;;;;41.83;16.15;;;3.10;99.90;;;;;;4935339;28;20023;-63
2023/03/06 08:35:40;;;;;;;35.97;16.75;;;3.10;99.90;;;;;;4933266;29;20031;-63
2023/03/06 08:38:05;;;;;;;38.00;17.98;;;3.20;99.90;;;;;;4931882;28;20031;-63
2023/03/06 08:40:31;;;;;;;40.45;17.08;;;3.20;99.90;;;;;;4926591;28;20047;-64
2023/03/06 08:42:56;;;;;;;38.72;17.20;;;3.10;99.90;;;;;;4910055;28;20044;-64
2023/03/06 08:45:22;;;;;;;34.63;16.05;;;3.10;99.90;;;;;;4926546;29;20107;-64
2023/03/06 08:47:47;;;;;;;33.10;16.27;;;3.10;99.90;;;;;;4930223;28;20046;-63
2023/03/06 08:50:13;;;;;;;37.50;16.50;;;3.10;99.90;;;;;;4930120;28;20425;-64
2023/03/06 08:52:38;;;;;;;35.88;16.30;;;3.10;99.90;;;;;;4943871;28;20032;-65
2023/03/06 08:55:04;;;;;;;34.72;15.75;;;3.10;99.90;;;;;;4936610;28;20509;-64
2023/03/06 08:57:30;;;;;;;39.97;17.67;;;3.10;99.90;;;;;;4928152;28;20122;-64
2023/03/06 08:59:56;;;;;;;37.42;16.35;;;3.20;99.90;;;;;;4942839;28;20170;-64
2023/03/06 09:02:21;;;;;;;30.00;14.10;;;3.20;99.90;;;;;;4926931;29;20115;-63
2023/03/06 09:04:47;;;;;;;35.83;16.70;;;3.10;99.90;;;;;;4922814;28;20039;-63
2023/03/06 09:07:12;;;;;;;35.78;15.98;;;3.20;99.90;;;;;;4923226;28;20031;-63
2023/03/06 09:09:38;;;;;;;32.70;16.80;;;3.20;99.90;;;;;;4943186;28;20028;-64
2023/03/06 09:12:03;;;;;;;33.35;15.88;;;3.20;99.90;;;;;;4921038;28;20035;-64
2023/03/06 09:14:30;;;;;;;30.88;14.32;;;3.30;99.90;;;;;;4933770;28;20027;-64
2023/03/06 09:16:56;;;;;;;36.53;14.93;;;3.30;99.90;;;;;;4928471;28;20032;-64
2023/03/06 09:19:21;;;;;;;31.30;14.80;;;3.30;99.90;;;;;;4927425;28;20043;-64
2023/03/06 09:21:48;;;;;;;35.70;15.25;;;3.30;99.90;;;;;;4942916;28;20035;-63
2023/03/06 09:24:13;;;;;;;35.15;14.52;;;3.40;99.90;;;;;;4928160;28;20024;-63
2023/03/06 09:26:39;;;;;;;32.58;14.15;;;3.40;99.90;;;;;;4929224;29;20120;-63
2023/03/06 09:29:05;;;;;;;26.25;13.63;;;3.50;99.90;;;;;;4924526;28;20028;-64
2023/03/06 09:31:31;;;;;;;30.92;15.63;;;3.50;99.90;;;;;;4930944;28;20057;-62
2023/03/06 09:33:57;;;;;;;31.48;13.65;;;3.50;99.90;;;;;;4942641;28;20075;-64
2023/03/06 09:36:23;;;;;;;32.75;14.93;;;3.50;99.90;;;;;;4929821;28;20024;-64
2023/03/06 09:38:49;;;;;;;34.90;14.57;;;3.50;99.90;;;;;;4943140;29;20127;-64
2023/03/06 09:41:23;;;;;;;33.17;15.70;;;3.40;99.90;;;;;;4910162;28;20043;-64
2023/03/06 09:43:52;;;;;;;30.20;13.30;;;3.40;99.90;;;;;;4924123;28;20119;-63
2023/03/06 09:46:42;;;;;;;25.25;12.05;;;3.50;99.90;;;;;;4937128;28;20665;-63
2023/03/06 09:49:41;;;;;;;27.77;11.68;;;3.50;99.90;;;;;;4939143;28;20586;-63
2023/03/06 09:52:28;;;;;;;25.20;11.57;;;3.60;99.90;;;;;;4922574;28;20031;-63
2023/03/06 09:55:17;;;;;;;25.23;12.35;;;3.80;99.90;;;;;;4942978;28;20531;-64
2023/03/06 09:57:58;;;;;;;24.20;11.48;;;3.90;99.90;;;;;;4927251;29;20110;-63
2023/03/06 10:00:55;;;;;;;24.50;11.73;;;4.10;99.90;;;;;;5008108;28;20090;-63
2023/03/06 10:03:23;;;;;;;20.48;9.88;;;4.10;99.90;;;;;;4920497;28;20448;-65
2023/03/06 10:05:58;;;;;;;22.77;10.00;;;4.20;99.90;;;;;;4937263;28;20042;-63
2023/03/06 10:08:55;;;;;;;21.83;10.65;;;4.20;99.90;;;;;;4928413;28;20110;-64
2023/03/06 10:11:31;;;;;;;21.48;10.27;;;4.20;99.90;;;;;;4925846;28;20421;-63
2023/03/06 10:14:20;;;;;;;20.80;10.30;;;4.40;99.90;;;;;;4931226;29;20020;-64
2023/03/06 10:16:46;;;;;;;21.75;11.10;;;4.60;99.90;;;;;;4929087;28;20039;-65
2023/03/06 10:19:17;;;;;;;18.33;9.82;;;4.60;99.90;;;;;;4933942;28;20530;-64
2023/03/06 10:21:43;;;;;;;20.02;10.05;;;4.60;99.90;;;;;;4922959;28;20103;-64
2023/03/06 10:24:27;;;;;;;23.05;10.05;;;4.70;99.90;;;;;;4941660;28;20190;-64
2023/03/06 10:27:20;;;;;;;17.02;9.30;;;4.60;99.90;;;;;;4927202;28;20039;-64
2023/03/06 10:29:54;;;;;;;22.35;11.18;;;4.50;99.90;;;;;;4929135;29;20085;-64
2023/03/06 10:32:33;;;;;;;22.77;10.23;;;4.60;99.90;;;;;;4934946;28;20036;-64
2023/03/06 10:35:00;;;;;;;21.15;11.40;;;4.60;99.90;;;;;;4929990;28;20020;-64
2023/03/06 10:37:28;;;;;;;20.73;11.27;;;4.80;99.90;;;;;;4939365;28;20027;-64
2023/03/06 10:40:18;;;;;;;22.00;11.05;;;4.90;99.90;;;;;;4930196;29;21998;-64
2023/03/06 10:42:44;;;;;;;23.83;12.45;;;4.80;99.90;;;;;;4905556;28;20545;-64
2023/03/06 10:45:13;;;;;;;23.23;10.73;;;4.80;99.90;;;;;;4922353;29;20028;-64
2023/03/06 10:47:39;;;;;;;23.95;12.02;;;5.00;99.90;;;;;;4926963;28;20051;-64
2023/03/06 10:50:17;;;;;;;27.08;13.38;;;5.40;99.90;;;;;;4923748;28;20115;-64
2023/03/06 10:52:43;;;;;;;25.45;12.88;;;5.50;99.90;;;;;;4926237;28;20103;-64
2023/03/06 10:55:23;;;;;;;25.13;11.48;;;5.70;99.90;;;;;;4922517;28;20028;-64
2023/03/06 10:57:48;;;;;;;23.75;11.65;;;5.70;99.90;;;;;;4935665;28;20046;-64
2023/03/06 11:00:37;;;;;;;24.50;12.63;;;5.70;99.90;;;;;;4932521;28;20146;-64
2023/03/06 11:03:22;;;;;;;25.88;12.73;;;5.80;99.90;;;;;;4939448;28;20035;-64
2023/03/06 11:05:59;;;;;;;22.27;12.10;;;5.70;99.90;;;;;;4927796;28;20336;-63
2023/03/06 11:08:25;;;;;;;27.60;12.27;;;5.60;99.90;;;;;;4924019;28;20035;-62
2023/03/06 11:11:03;;;;;;;22.95;11.95;;;5.50;99.90;;;;;;4924004;28;20393;-62
2023/03/06 11:13:35;;;;;;;23.70;12.43;;;5.40;99.90;;;;;;4925176;28;20028;-64
2023/03/06 11:16:12;;;;;;;25.15;12.00;;;5.30;99.90;;;;;;4925268;28;20028;-63
2023/03/06 11:18:41;;;;;;;26.17;12.15;;;5.30;99.90;;;;;;4923048;28;20492;-64
2023/03/06 11:21:38;;;;;;;22.58;11.52;;;5.20;99.90;;;;;;4922287;28;20032;-64
2023/03/06 11:24:20;;;;;;;27.75;13.15;;;5.10;99.90;;;;;;4940225;28;20040;-64
2023/03/06 11:26:58;;;;;;;29.75;13.65;;;5.00;99.90;;;;;;4922825;28;20046;-62
2023/03/06 11:29:43;;;;;;;26.02;13.43;;;4.90;99.90;;;;;;4925762;28;20031;-65
2023/03/06 11:32:13;;;;;;;26.67;14.50;;;4.80;99.90;;;;;;4938651;29;20024;-64
2023/03/06 11:34:56;;;;;;;27.42;12.80;;;4.90;99.90;;;;;;4924654;29;20381;-63
2023/03/06 11:37:31;;;;;;;27.00;13.60;;;4.80;99.90;;;;;;4926195;28;20024;-64
2023/03/06 11:40:27;;;;;;;24.70;12.88;;;4.70;99.90;;;;;;4929936;28;20059;-64
2023/03/06 11:43:10;;;;;;;31.02;15.10;;;4.50;99.90;;;;;;4908923;28;20059;-63
2023/03/06 11:45:54;;;;;;;28.65;13.55;;;4.40;99.90;;;;;;4922576;28;20028;-63
2023/03/06 11:48:25;;;;;;;24.98;12.55;;;4.30;99.90;;;;;;4922062;28;20042;-64
2023/03/06 11:50:58;;;;;;;28.05;14.07;;;4.30;99.90;;;;;;4926234;28;20046;-65
2023/03/06 11:53:36;;;;;;;26.58;14.35;;;4.30;99.90;;;;;;4919241;28;20035;-64
2023/03/06 11:56:17;;;;;;;31.48;14.55;;;4.20;99.90;;;;;;4921182;29;20054;-64
2023/03/06 11:59:14;;;;;;;32.15;14.55;;;4.20;99.90;;;;;;4922555;29;20052;-63
2023/03/06 12:01:59;;;;;;;30.42;12.95;;;4.30;99.90;;;;;;5002802;28;20028;-64
2023/03/06 12:04:27;;;;;;;24.42;11.63;;;4.20;99.90;;;;;;4944130;29;20028;-64
2023/03/06 12:07:11;;;;;;;27.15;12.65;;;4.00;99.90;;;;;;4933140;28;20036;-65
2023/03/06 12:09:48;;;;;;;25.23;12.98;;;4.10;99.90;;;;;;4941515;28;20115;-65
2023/03/06 12:12:49;;;;;;;22.35;11.82;;;4.20;99.90;;;;;;4926735;28;20489;-64
2023/03/06 12:15:37;;;;;;;21.27;10.88;;;4.30;99.90;;;;;;4944136;29;20032;-63
2023/03/06 12:18:24;;;;;;;29.38;12.95;;;4.20;99.90;;;;;;4958086;28;20705;-64
2023/03/06 12:21:24;;;;;;;24.05;12.02;;;4.20;99.90;;;;;;4927124;28;20104;-65
2023/03/06 12:24:05;;;;;;;26.42;11.18;;;4.20;99.90;;;;;;4939766;28;20074;-64
2023/03/06 12:26:49;;;;;;;24.50;12.48;;;4.40;99.90;;;;;;4921077;28;20051;-64
2023/03/06 12:29:15;;;;;;;23.90;10.77;;;4.50;99.90;;;;;;4925780;28;20150;-64
2023/03/06 12:32:07;;;;;;;32.17;12.50;;;4.50;99.90;;;;;;4924116;28;20016;-64
2023/03/06 12:34:48;;;;;;;25.90;12.15;;;4.50;99.90;;;;;;4921730;29;20020;-64
2023/03/06 12:37:19;;;;;;;26.92;12.10;;;4.50;99.90;;;;;;5006967;28;20027;-64
2023/03/06 12:40:20;;;;;;;23.83;11.60;;;4.60;99.90;;;;;;4928950;28;20024;-64
2023/03/06 12:43:09;;;;;;;22.08;11.02;;;4.70;99.90;;;;;;4906392;28;20055;-65
2023/03/06 12:45:38;;;;;;;25.35;12.18;;;4.70;99.90;;;;;;5008585;28;20504;-64
2023/03/06 12:48:13;;;;;;;26.10;10.63;;;4.50;99.90;;;;;;4929659;28;20560;-65
2023/03/06 12:50:43;;;;;;;25.05;11.25;;;4.50;99.90;;;;;;4930474;29;20123;-64